Time;durP1;ratioP1;P1;durP2;ratioP2;P2;SDS_P1;SDS_P2;PMS_P1;PMS_P2;Temp;Humidity;BMP_temperature;BMP_pressure;BME280_temperature;BME280_humidity;BME280_pressure;Samples;Min_cycle;Max_cycle;Signal;HPM_P1;HPM_P2
2020/12/03 00:00:45;;;;;;;25.67;15.85;;;4.30;99.90;;;;;;5052556;28;20649;-78
2020/12/03 00:03:33;;;;;;;25.45;14.98;;;4.30;99.90;;;;;;5053912;28;20167;-79
2020/12/03 00:06:16;;;;;;;27.13;16.10;;;4.30;99.90;;;;;;5053383;28;20172;-78
2020/12/03 00:08:57;;;;;;;25.95;15.15;;;4.30;99.90;;;;;;5053707;28;20598;-78
2020/12/03 00:11:26;;;;;;;27.20;15.95;;;4.30;99.90;;;;;;5054013;28;20185;-77
2020/12/03 00:13:52;;;;;;;26.23;17.05;;;4.30;99.90;;;;;;5053766;28;20176;-78
2020/12/03 00:16:18;;;;;;;24.67;16.00;;;4.30;99.90;;;;;;5053473;28;20169;-78
2020/12/03 00:18:44;;;;;;;25.77;16.02;;;4.30;99.90;;;;;;5053144;28;20193;-78
2020/12/03 00:21:13;;;;;;;23.17;14.80;;;4.30;99.90;;;;;;5053573;28;20168;-78
2020/12/03 00:23:41;;;;;;;23.70;15.30;;;4.30;99.90;;;;;;5053476;28;20169;-78
2020/12/03 00:26:08;;;;;;;22.30;13.52;;;4.30;99.90;;;;;;5053085;28;20281;-79
2020/12/03 00:28:42;;;;;;;24.67;14.82;;;4.30;99.90;;;;;;5053273;28;20162;-78
2020/12/03 00:31:08;;;;;;;26.20;16.95;;;4.30;99.90;;;;;;5053542;28;20153;-79
2020/12/03 00:33:34;;;;;;;21.45;14.40;;;4.30;99.90;;;;;;5052057;28;20589;-78
2020/12/03 00:36:00;;;;;;;22.00;14.87;;;4.30;99.90;;;;;;5053056;28;20177;-78
2020/12/03 00:38:27;;;;;;;21.80;14.40;;;4.30;99.90;;;;;;5053171;28;20307;-78
2020/12/03 00:40:53;;;;;;;25.38;15.50;;;4.30;99.90;;;;;;5053200;28;20174;-77
2020/12/03 00:43:20;;;;;;;22.42;13.50;;;4.30;99.90;;;;;;5053292;28;20510;-78
2020/12/03 00:45:47;;;;;;;21.88;13.70;;;4.30;99.90;;;;;;5052936;28;20171;-78
2020/12/03 00:48:14;;;;;;;21.08;14.48;;;4.30;99.90;;;;;;5052942;28;20189;-78
2020/12/03 00:50:40;;;;;;;24.10;14.80;;;4.40;99.90;;;;;;5053040;28;20197;-78
2020/12/03 00:53:06;;;;;;;20.37;13.47;;;4.40;99.90;;;;;;5053361;28;20647;-78
2020/12/03 00:55:31;;;;;;;17.80;12.80;;;4.40;99.90;;;;;;5052851;28;20411;-79
2020/12/03 00:57:57;;;;;;;21.17;13.47;;;4.40;99.90;;;;;;5053060;28;20189;-78
2020/12/03 01:00:23;;;;;;;30.23;13.27;;;4.40;99.90;;;;;;5053032;28;20219;-77
2020/12/03 01:02:49;;;;;;;22.53;13.67;;;4.40;99.90;;;;;;5053201;28;20892;-77
2020/12/03 01:05:16;;;;;;;25.83;14.67;;;4.40;99.90;;;;;;5052763;28;20404;-77
2020/12/03 01:07:42;;;;;;;17.98;12.70;;;4.40;99.90;;;;;;5053134;28;20423;-78
2020/12/03 01:10:31;;;;;;;21.77;14.10;;;4.40;99.90;;;;;;5053005;28;20197;-78
2020/12/03 01:12:57;;;;;;;19.33;13.15;;;4.40;99.90;;;;;;5052100;28;20426;-78
2020/12/03 01:15:23;;;;;;;19.67;12.68;;;4.40;99.90;;;;;;5052616;28;20181;-78
2020/12/03 01:17:49;;;;;;;20.47;13.47;;;4.40;99.90;;;;;;5052768;28;20205;-78
2020/12/03 01:20:24;;;;;;;20.50;13.67;;;4.40;99.90;;;;;;5052794;28;20432;-78
2020/12/03 01:22:50;;;;;;;18.17;12.65;;;4.40;99.90;;;;;;5053091;28;20395;-79
2020/12/03 01:25:22;;;;;;;18.50;13.15;;;4.40;99.90;;;;;;5052576;28;20204;-78
2020/12/03 01:27:48;;;;;;;16.27;12.25;;;4.40;99.90;;;;;;5052954;28;20626;-79
2020/12/03 01:30:15;;;;;;;16.33;12.10;;;4.40;99.90;;;;;;5054004;28;20225;-77
2020/12/03 01:32:41;;;;;;;18.20;12.65;;;4.40;99.90;;;;;;5056657;28;20414;-78
2020/12/03 01:35:09;;;;;;;20.30;13.23;;;4.40;99.90;;;;;;5056651;28;20707;-79
2020/12/03 01:37:35;;;;;;;16.63;12.15;;;4.40;99.90;;;;;;5056547;28;20200;-77
2020/12/03 01:40:01;;;;;;;16.65;11.70;;;4.40;99.90;;;;;;5056500;28;20217;-78
2020/12/03 01:42:27;;;;;;;24.67;14.32;;;4.50;99.90;;;;;;5056479;28;20188;-78
2020/12/03 01:44:54;;;;;;;18.70;11.93;;;4.40;99.90;;;;;;5056094;28;20249;-77
2020/12/03 01:47:31;;;;;;;16.00;12.20;;;4.50;99.90;;;;;;5056300;28;20195;-78
2020/12/03 01:49:58;;;;;;;19.00;12.13;;;4.50;99.90;;;;;;5054972;28;20185;-78
2020/12/03 01:52:24;;;;;;;19.15;11.65;;;4.50;99.90;;;;;;5056327;28;20162;-78
2020/12/03 01:54:51;;;;;;;15.05;10.30;;;4.50;99.90;;;;;;5055965;28;20166;-78
2020/12/03 01:57:51;;;;;;;14.63;10.88;;;4.50;99.90;;;;;;5056110;28;20172;-77
2020/12/03 02:00:18;;;;;;;19.13;11.98;;;4.50;99.90;;;;;;5056379;28;20185;-77
2020/12/03 02:02:50;;;;;;;19.85;11.73;;;4.50;99.90;;;;;;5056032;28;20217;-78
2020/12/03 02:05:22;;;;;;;13.93;9.68;;;4.50;99.90;;;;;;5055759;28;20172;-78
2020/12/03 02:07:48;;;;;;;13.18;10.00;;;4.50;99.90;;;;;;5056129;28;20173;-78
2020/12/03 02:10:16;;;;;;;12.97;9.03;;;4.50;99.90;;;;;;5056045;28;20192;-77
2020/12/03 02:12:41;;;;;;;13.68;10.13;;;4.50;99.90;;;;;;5056253;28;20263;-78
2020/12/03 02:15:10;;;;;;;15.43;10.90;;;4.50;99.90;;;;;;5055597;28;20205;-78
2020/12/03 02:17:36;;;;;;;13.73;9.00;;;4.50;99.90;;;;;;5055734;28;20494;-78
2020/12/03 02:20:13;;;;;;;16.77;11.63;;;4.50;99.90;;;;;;5055779;28;20193;-78
2020/12/03 02:22:39;;;;;;;11.93;9.20;;;4.50;99.90;;;;;;5055842;28;20146;-79
2020/12/03 02:25:08;;;;;;;12.77;9.90;;;4.50;99.90;;;;;;5055314;28;20176;-78
2020/12/03 02:27:35;;;;;;;11.60;9.00;;;4.50;99.90;;;;;;5055779;28;20412;-78
2020/12/03 02:30:02;;;;;;;13.20;9.48;;;4.50;99.90;;;;;;5055606;28;20196;-78
2020/12/03 02:32:28;;;;;;;11.75;9.20;;;4.50;99.90;;;;;;5055549;28;20528;-78
2020/12/03 02:34:54;;;;;;;11.43;8.30;;;4.50;99.90;;;;;;5055163;28;20176;-78
2020/12/03 02:37:19;;;;;;;13.80;10.43;;;4.50;99.90;;;;;;5055408;28;20165;-77
2020/12/03 02:39:45;;;;;;;16.73;10.60;;;4.40;99.90;;;;;;5055384;28;20192;-78
2020/12/03 02:42:13;;;;;;;11.90;8.77;;;4.40;99.90;;;;;;5055059;28;20173;-77
2020/12/03 02:44:43;;;;;;;16.77;8.27;;;4.40;99.90;;;;;;5055011;28;20166;-77
2020/12/03 02:47:11;;;;;;;12.40;8.60;;;4.40;99.90;;;;;;5055116;28;20224;-79
2020/12/03 02:49:41;;;;;;;10.68;7.88;;;4.40;99.90;;;;;;5055123;28;20525;-77
2020/12/03 02:52:08;;;;;;;8.93;7.13;;;4.50;99.90;;;;;;5055130;28;20169;-77
2020/12/03 02:54:33;;;;;;;12.23;7.78;;;4.40;99.90;;;;;;5054856;28;20175;-79
2020/12/03 02:56:59;;;;;;;12.83;7.30;;;4.50;99.90;;;;;;5055105;28;20171;-78
2020/12/03 02:59:25;;;;;;;9.03;6.77;;;4.50;99.90;;;;;;5054867;28;20563;-77
2020/12/03 03:01:50;;;;;;;11.13;7.70;;;4.40;99.90;;;;;;5055023;28;20162;-77
2020/12/03 03:04:16;;;;;;;10.50;7.60;;;4.50;99.90;;;;;;5055015;28;20610;-77
2020/12/03 03:06:41;;;;;;;10.13;7.40;;;4.50;99.90;;;;;;5055001;28;20549;-78
2020/12/03 03:09:07;;;;;;;10.33;6.30;;;4.50;99.90;;;;;;5054857;28;20197;-78
2020/12/03 03:11:34;;;;;;;10.27;7.43;;;4.50;99.90;;;;;;5054880;28;20173;-78
2020/12/03 03:14:01;;;;;;;8.73;6.75;;;4.50;99.90;;;;;;5054787;28;20526;-78
2020/12/03 03:16:30;;;;;;;11.85;7.35;;;4.50;99.90;;;;;;5054413;28;20533;-78
2020/12/03 03:18:56;;;;;;;8.55;6.82;;;4.50;99.90;;;;;;5054610;28;20197;-78
2020/12/03 03:21:23;;;;;;;8.83;6.50;;;4.50;99.90;;;;;;5054696;28;20493;-78
2020/12/03 03:23:49;;;;;;;8.75;6.82;;;4.50;99.90;;;;;;5054561;28;20938;-77
2020/12/03 03:26:15;;;;;;;8.40;6.50;;;4.50;99.90;;;;;;5054373;28;20173;-78
2020/12/03 03:28:41;;;;;;;8.68;6.55;;;4.50;99.90;;;;;;5054300;28;20264;-79
2020/12/03 03:31:07;;;;;;;9.43;6.17;;;4.50;99.90;;;;;;5053205;28;20272;-77
2020/12/03 03:33:33;;;;;;;7.90;6.00;;;4.50;99.90;;;;;;5054482;28;20435;-78
2020/12/03 03:35:59;;;;;;;8.13;5.80;;;4.50;99.90;;;;;;5054254;28;20568;-77
2020/12/03 03:38:25;;;;;;;8.20;6.00;;;4.50;99.90;;;;;;5054359;28;20196;-79
2020/12/03 03:40:51;;;;;;;10.20;7.47;;;4.50;99.90;;;;;;5054232;28;20420;-79
2020/12/03 03:43:17;;;;;;;10.13;6.05;;;4.50;99.90;;;;;;5054384;28;20170;-79
2020/12/03 03:45:42;;;;;;;6.68;5.00;;;4.50;99.90;;;;;;5053799;28;20180;-79
2020/12/03 03:48:08;;;;;;;8.90;6.20;;;4.50;99.90;;;;;;5054092;28;20177;-78
2020/12/03 03:50:34;;;;;;;9.13;6.53;;;4.50;99.90;;;;;;5054132;28;20228;-78
2020/12/03 03:52:59;;;;;;;7.10;5.50;;;4.50;99.90;;;;;;5053483;28;20181;-78
2020/12/03 03:55:25;;;;;;;6.30;5.10;;;4.50;99.90;;;;;;5053730;28;20169;-78
2020/12/03 03:57:51;;;;;;;6.80;5.47;;;4.50;99.90;;;;;;5053754;28;20233;-76
2020/12/03 04:00:19;;;;;;;7.15;4.85;;;4.60;99.90;;;;;;5054067;28;20185;-78
2020/12/03 04:02:46;;;;;;;6.63;4.85;;;4.60;99.90;;;;;;5053915;28;20192;-78
2020/12/03 04:05:13;;;;;;;6.20;4.38;;;4.50;99.90;;;;;;5053905;28;20640;-79
2020/12/03 04:07:39;;;;;;;12.88;5.07;;;4.50;99.90;;;;;;5053893;28;20282;-78
2020/12/03 04:10:06;;;;;;;6.50;4.73;;;4.50;99.90;;;;;;5053560;28;20217;-78
2020/12/03 04:12:33;;;;;;;6.97;5.07;;;4.50;99.90;;;;;;5053724;28;20169;-78
2020/12/03 04:15:02;;;;;;;6.47;4.40;;;4.50;99.90;;;;;;5053383;28;20528;-78
2020/12/03 04:17:28;;;;;;;6.25;4.40;;;4.50;99.90;;;;;;5053482;28;20188;-79
2020/12/03 04:19:55;;;;;;;8.82;4.80;;;4.50;99.90;;;;;;5053362;28;20218;-78
2020/12/03 04:22:21;;;;;;;5.85;4.25;;;4.50;99.90;;;;;;5053485;28;20162;-77
2020/12/03 04:24:47;;;;;;;6.78;4.65;;;4.50;99.90;;;;;;5053328;28;20176;-77
2020/12/03 04:27:13;;;;;;;4.90;3.73;;;4.40;99.90;;;;;;5053583;28;20169;-78
2020/12/03 04:29:39;;;;;;;5.40;4.37;;;4.40;99.90;;;;;;5053312;28;20279;-78
2020/12/03 04:32:05;;;;;;;5.47;4.13;;;4.40;99.90;;;;;;5053352;28;20260;-78
2020/12/03 04:34:30;;;;;;;6.20;4.40;;;4.30;99.90;;;;;;5053093;28;20567;-78
2020/12/03 04:36:56;;;;;;;9.17;4.70;;;4.30;99.90;;;;;;5053381;28;20198;-78
2020/12/03 04:39:21;;;;;;;6.80;4.13;;;4.40;99.90;;;;;;5053071;28;20224;-78
2020/12/03 04:41:47;;;;;;;4.97;3.80;;;4.40;99.90;;;;;;5053233;28;20215;-78
2020/12/03 04:44:31;;;;;;;6.13;4.75;;;4.30;99.90;;;;;;5053217;28;20215;-79
2020/12/03 04:47:47;;;;;;;4.47;4.00;;;4.40;99.90;;;;;;5053169;28;20698;-79
2020/12/03 04:50:59;;;;;;;6.70;4.43;;;4.30;99.90;;;;;;5052835;28;20193;-77
2020/12/03 04:53:49;;;;;;;7.75;4.82;;;4.30;99.90;;;;;;5051012;28;20188;-78
2020/12/03 04:56:30;;;;;;;5.75;3.90;;;4.20;99.90;;;;;;5050643;28;20150;-78
2020/12/03 04:58:58;;;;;;;5.00;3.95;;;4.20;99.90;;;;;;5052420;28;20227;-78
2020/12/03 05:01:36;;;;;;;6.85;5.10;;;4.20;99.90;;;;;;5053087;28;20252;-78
2020/12/03 05:04:08;;;;;;;7.97;5.05;;;4.20;99.90;;;;;;5054050;28;20191;-77
2020/12/03 05:06:43;;;;;;;6.22;4.22;;;4.20;99.90;;;;;;5056861;28;20652;-77
2020/12/03 05:09:32;;;;;;;8.10;5.60;;;4.20;99.90;;;;;;5057157;28;20285;-78
2020/12/03 05:12:17;;;;;;;6.80;4.78;;;4.20;99.90;;;;;;5057141;28;20169;-79
2020/12/03 05:14:54;;;;;;;6.80;4.57;;;4.20;99.90;;;;;;5056869;28;20181;-78
2020/12/03 05:17:52;;;;;;;6.43;4.30;;;4.10;99.90;;;;;;5057074;28;20239;-78
2020/12/03 05:20:40;;;;;;;6.85;4.78;;;4.20;99.90;;;;;;5056002;28;20212;-77
2020/12/03 05:23:21;;;;;;;6.20;4.15;;;4.10;99.90;;;;;;5056966;28;20166;-78
2020/12/03 05:25:49;;;;;;;6.13;4.82;;;4.10;99.90;;;;;;5056551;28;20673;-76
2020/12/03 05:28:40;;;;;;;5.32;4.10;;;4.10;99.90;;;;;;5056706;28;20177;-77
2020/12/03 05:31:28;;;;;;;5.78;4.07;;;4.10;99.90;;;;;;5056797;28;20212;-78
2020/12/03 05:34:18;;;;;;;7.13;4.70;;;4.20;99.90;;;;;;5056530;28;20579;-79
2020/12/03 05:36:55;;;;;;;6.20;4.80;;;4.20;99.90;;;;;;5056136;28;20194;-78
2020/12/03 05:39:24;;;;;;;6.15;4.95;;;4.20;99.90;;;;;;5056586;28;20555;-78
2020/12/03 05:41:56;;;;;;;6.75;4.85;;;4.20;99.90;;;;;;5056525;28;20234;-77
2020/12/03 05:44:26;;;;;;;6.60;5.40;;;4.20;99.90;;;;;;5056522;28;20473;-78
2020/12/03 05:46:54;;;;;;;6.88;5.97;;;4.20;99.90;;;;;;5056266;28;20182;-78
2020/12/03 05:49:23;;;;;;;8.50;5.15;;;4.20;99.90;;;;;;5056367;28;20338;-78
2020/12/03 05:52:05;;;;;;;6.93;4.75;;;4.20;99.90;;;;;;5056470;28;20168;-78
2020/12/03 05:54:31;;;;;;;7.35;5.38;;;4.20;99.90;;;;;;5055807;28;20168;-78
2020/12/03 05:56:57;;;;;;;6.37;5.33;;;4.20;99.90;;;;;;5056208;28;20177;-78
2020/12/03 05:59:25;;;;;;;6.33;5.10;;;4.20;99.90;;;;;;5056152;28;20466;-77
2020/12/03 06:02:12;;;;;;;6.90;4.95;;;4.30;99.90;;;;;;5056062;28;20180;-78
2020/12/03 06:04:45;;;;;;;5.45;4.78;;;4.30;99.90;;;;;;5054664;28;20173;-78
2020/12/03 06:07:46;;;;;;;9.90;5.38;;;4.30;99.90;;;;;;5056280;28;20168;-78
2020/12/03 06:10:38;;;;;;;6.85;5.72;;;4.30;99.90;;;;;;5056111;28;20232;-77
2020/12/03 06:13:36;;;;;;;5.68;4.72;;;4.30;99.90;;;;;;5056010;28;20184;-78
2020/12/03 06:16:13;;;;;;;7.70;5.30;;;4.30;99.90;;;;;;5055037;28;20177;-77
2020/12/03 06:19:12;;;;;;;7.00;5.00;;;4.30;99.90;;;;;;5055712;28;20196;-78
2020/12/03 06:21:52;;;;;;;6.85;5.03;;;4.30;99.90;;;;;;5055791;28;20227;-77
2020/12/03 06:24:42;;;;;;;10.13;5.53;;;4.30;99.90;;;;;;5055891;28;20193;-78
2020/12/03 06:27:33;;;;;;;7.65;5.72;;;4.30;99.90;;;;;;5055762;28;20174;-78
2020/12/03 06:30:27;;;;;;;5.70;4.75;;;4.30;99.90;;;;;;5055587;28;20209;-78
2020/12/03 06:33:37;;;;;;;5.57;4.78;;;4.30;99.90;;;;;;5055140;28;20192;-77
2020/12/03 06:36:05;;;;;;;5.60;4.28;;;4.30;99.90;;;;;;5055267;28;20173;-77
2020/12/03 06:38:34;;;;;;;4.55;4.03;;;4.30;99.90;;;;;;5055307;28;20254;-78
2020/12/03 06:41:22;;;;;;;6.65;5.15;;;4.30;99.90;;;;;;5055214;28;20165;-77
2020/12/03 06:44:04;;;;;;;7.95;4.90;;;4.30;99.90;;;;;;5055402;28;20284;-76
2020/12/03 06:46:45;;;;;;;7.28;5.22;;;4.30;99.90;;;;;;5054948;28;20169;-77
2020/12/03 06:49:29;;;;;;;7.45;5.50;;;4.40;99.90;;;;;;5047691;28;20593;-75
2020/12/03 06:52:23;;;;;;;5.72;5.00;;;4.40;99.90;;;;;;5034953;28;20257;-76
2020/12/03 06:55:10;;;;;;;8.10;5.28;;;4.40;99.90;;;;;;5034704;28;20170;-77
2020/12/03 06:58:00;;;;;;;8.10;5.88;;;4.40;99.90;;;;;;5035069;28;20163;-76
2020/12/03 07:01:03;;;;;;;7.05;5.30;;;4.30;99.90;;;;;;5035171;28;20547;-76
2020/12/03 07:03:49;;;;;;;7.68;5.28;;;4.40;99.90;;;;;;5034762;28;20602;-77
2020/12/03 07:06:30;;;;;;;10.02;5.70;;;4.40;99.90;;;;;;5034822;28;20150;-77
2020/12/03 07:08:59;;;;;;;9.45;5.60;;;4.30;99.90;;;;;;5034881;28;20193;-77
2020/12/03 07:11:45;;;;;;;7.90;5.15;;;4.40;99.90;;;;;;5034860;28;20170;-78
2020/12/03 07:14:36;;;;;;;6.38;5.32;;;4.40;99.90;;;;;;5035118;28;20175;-77
2020/12/03 07:17:15;;;;;;;8.45;5.70;;;4.30;99.90;;;;;;5034947;28;20178;-77
2020/12/03 07:19:56;;;;;;;8.75;6.32;;;4.40;99.90;;;;;;5034846;28;20205;-78
2020/12/03 07:22:25;;;;;;;9.63;6.18;;;4.40;99.90;;;;;;5034836;28;20190;-77
2020/12/03 07:24:51;;;;;;;8.10;5.80;;;4.40;99.90;;;;;;5034420;28;20170;-78
2020/12/03 07:27:54;;;;;;;12.10;6.93;;;4.30;99.90;;;;;;5033716;28;20295;-75
2020/12/03 07:30:44;;;;;;;9.57;6.15;;;4.30;99.90;;;;;;5034430;28;20658;-77
2020/12/03 07:33:27;;;;;;;8.73;6.60;;;4.30;99.90;;;;;;5034535;28;20635;-78
2020/12/03 07:36:17;;;;;;;10.07;6.25;;;4.40;99.90;;;;;;5034359;28;20304;-76
2020/12/03 07:39:08;;;;;;;15.40;7.55;;;4.30;99.90;;;;;;5034163;28;20224;-75
2020/12/03 07:41:55;;;;;;;10.85;6.90;;;4.30;99.90;;;;;;5034278;28;20166;-77
2020/12/03 07:44:28;;;;;;;10.93;7.30;;;4.40;99.90;;;;;;5034341;28;20243;-77
2020/12/03 07:47:15;;;;;;;11.82;7.25;;;4.40;99.90;;;;;;5034339;28;20179;-77
2020/12/03 07:49:43;;;;;;;11.95;7.43;;;4.40;99.90;;;;;;5033965;28;20190;-77
2020/12/03 07:52:32;;;;;;;9.80;6.93;;;4.40;99.90;;;;;;5034198;28;20179;-77
2020/12/03 07:55:19;;;;;;;14.52;9.30;;;4.40;99.90;;;;;;5032502;28;20185;-76
2020/12/03 07:57:46;;;;;;;11.25;7.60;;;4.40;99.90;;;;;;5033688;28;20221;-76
2020/12/03 08:00:27;;;;;;;11.40;7.15;;;4.40;99.90;;;;;;5033889;28;20224;-78
2020/12/03 08:02:56;;;;;;;12.45;7.47;;;4.40;99.90;;;;;;5033827;28;20173;-77
2020/12/03 08:05:40;;;;;;;10.07;7.07;;;4.40;99.90;;;;;;5033469;28;20179;-77
2020/12/03 08:08:24;;;;;;;10.85;7.18;;;4.40;99.90;;;;;;5033892;28;20188;-78
2020/12/03 08:10:51;;;;;;;11.70;7.55;;;4.40;99.90;;;;;;5033644;28;20279;-77
2020/12/03 08:13:20;;;;;;;11.32;7.93;;;4.40;99.90;;;;;;5033884;28;20218;-77
2020/12/03 08:15:59;;;;;;;8.82;6.93;;;4.40;99.90;;;;;;5033290;28;20522;-77
2020/12/03 08:18:46;;;;;;;10.45;7.15;;;4.40;99.90;;;;;;5033405;28;20197;-78
2020/12/03 08:21:15;;;;;;;10.82;7.30;;;4.40;99.90;;;;;;5033629;28;20170;-77
2020/12/03 08:23:50;;;;;;;14.73;8.63;;;4.40;99.90;;;;;;5033414;28;20177;-79
2020/12/03 08:26:26;;;;;;;9.68;6.28;;;4.50;99.90;;;;;;5033206;28;20634;-76
2020/12/03 08:28:52;;;;;;;10.85;7.30;;;4.50;99.90;;;;;;5033495;28;20245;-77
2020/12/03 08:31:18;;;;;;;10.80;6.73;;;4.50;99.90;;;;;;5033457;28;20669;-76
2020/12/03 08:33:43;;;;;;;9.93;6.20;;;4.50;99.90;;;;;;5032422;28;20401;-78
2020/12/03 08:36:12;;;;;;;10.07;6.67;;;4.50;99.90;;;;;;5033149;28;20210;-76
2020/12/03 08:38:40;;;;;;;10.38;6.47;;;4.50;99.90;;;;;;5032892;28;20213;-78
2020/12/03 08:41:10;;;;;;;13.07;7.50;;;4.50;99.90;;;;;;5033263;28;20223;-77
2020/12/03 08:43:41;;;;;;;11.82;7.28;;;4.50;99.90;;;;;;5033313;28;20551;-77
2020/12/03 08:46:12;;;;;;;10.15;6.55;;;4.50;99.90;;;;;;5032998;28;20219;-76
2020/12/03 08:48:39;;;;;;;11.15;7.43;;;4.40;99.90;;;;;;5033149;28;20200;-76
2020/12/03 08:51:10;;;;;;;9.45;6.88;;;4.40;99.90;;;;;;5033150;28;20206;-76
2020/12/03 08:53:37;;;;;;;9.70;6.15;;;4.50;99.90;;;;;;5033162;28;20236;-77
2020/12/03 08:56:15;;;;;;;9.35;6.32;;;4.50;99.90;;;;;;5032769;28;20558;-77
2020/12/03 08:59:00;;;;;;;11.65;6.65;;;4.50;99.90;;;;;;5033013;28;20649;-76
2020/12/03 09:01:39;;;;;;;10.10;6.90;;;4.60;99.90;;;;;;5033132;28;20526;-77
2020/12/03 09:04:06;;;;;;;11.27;7.68;;;4.60;99.90;;;;;;5032921;28;20177;-75
2020/12/03 09:06:35;;;;;;;9.95;6.38;;;4.60;99.90;;;;;;5032644;28;20273;-77
2020/12/03 09:09:03;;;;;;;11.98;7.22;;;4.60;99.90;;;;;;5032966;28;20196;-77
2020/12/03 09:11:33;;;;;;;10.35;6.45;;;4.70;99.90;;;;;;5033153;28;20261;-77
2020/12/03 09:14:01;;;;;;;10.20;6.97;;;4.70;99.90;;;;;;5033046;28;20201;-77
2020/12/03 09:16:29;;;;;;;13.38;9.00;;;4.70;99.90;;;;;;5032599;28;20253;-76
2020/12/03 09:18:55;;;;;;;10.30;6.95;;;4.70;99.90;;;;;;5032840;28;20209;-77
2020/12/03 09:21:28;;;;;;;10.87;7.60;;;4.70;99.90;;;;;;5033270;28;20189;-77
2020/12/03 09:23:56;;;;;;;11.57;7.40;;;4.70;99.90;;;;;;5033101;28;20204;-76
2020/12/03 09:26:32;;;;;;;11.70;7.78;;;4.70;99.90;;;;;;5032700;28;20174;-75
2020/12/03 09:28:59;;;;;;;9.00;7.03;;;4.80;99.90;;;;;;5032770;28;20193;-77
2020/12/03 09:31:25;;;;;;;12.82;8.63;;;4.80;99.90;;;;;;5031780;28;20195;-75
2020/12/03 09:33:52;;;;;;;14.15;8.07;;;4.80;99.90;;;;;;5032791;28;20194;-75
2020/12/03 09:36:18;;;;;;;11.90;8.70;;;4.80;99.90;;;;;;5032461;28;20173;-78
2020/12/03 09:38:48;;;;;;;16.10;8.60;;;4.80;99.90;;;;;;5032916;28;20206;-76
2020/12/03 09:41:16;;;;;;;11.93;8.77;;;4.80;99.90;;;;;;5032751;28;20177;-77
2020/12/03 09:43:45;;;;;;;13.55;9.25;;;4.80;99.90;;;;;;5032787;28;20562;-76
2020/12/03 09:46:14;;;;;;;12.23;8.18;;;4.80;99.90;;;;;;5032633;28;20170;-76
2020/12/03 09:48:41;;;;;;;13.88;8.95;;;4.80;99.90;;;;;;5032688;28;20183;-76
2020/12/03 09:51:07;;;;;;;10.85;7.93;;;4.80;99.90;;;;;;5033931;28;20166;-75
2020/12/03 09:53:34;;;;;;;12.32;7.97;;;4.80;99.90;;;;;;5036291;28;20174;-77
2020/12/03 09:56:02;;;;;;;13.85;8.80;;;4.80;99.90;;;;;;5036027;28;20635;-77
2020/12/03 09:58:28;;;;;;;10.40;7.65;;;4.90;99.90;;;;;;5036111;28;20288;-77
2020/12/03 10:00:57;;;;;;;12.43;6.63;;;4.80;99.90;;;;;;5034905;28;20536;-77
2020/12/03 10:03:34;;;;;;;10.27;8.15;;;4.80;99.90;;;;;;5037047;28;20657;-77
2020/12/03 10:06:02;;;;;;;13.18;9.60;;;4.80;99.90;;;;;;5035982;28;20193;-77
2020/12/03 10:08:42;;;;;;;13.43;8.02;;;4.80;99.90;;;;;;5036017;28;20173;-78
2020/12/03 10:11:17;;;;;;;13.85;9.40;;;4.80;99.90;;;;;;5036380;28;20609;-77
2020/12/03 10:14:07;;;;;;;10.88;7.75;;;4.80;99.90;;;;;;5036306;28;20165;-77
2020/12/03 10:16:36;;;;;;;12.50;9.00;;;4.80;99.90;;;;;;5035511;28;20633;-77
2020/12/03 10:19:09;;;;;;;13.15;8.60;;;4.80;99.90;;;;;;5035932;28;20201;-77
2020/12/03 10:21:41;;;;;;;12.02;8.10;;;4.80;99.90;;;;;;5035964;28;20167;-78
2020/12/03 10:24:19;;;;;;;13.93;8.48;;;4.80;99.90;;;;;;5035991;28;20481;-78
2020/12/03 10:27:02;;;;;;;13.85;8.48;;;4.80;99.90;;;;;;5035562;28;20152;-77
2020/12/03 10:29:31;;;;;;;10.82;7.85;;;4.80;99.90;;;;;;5035650;28;20245;-78
2020/12/03 10:32:07;;;;;;;14.63;8.85;;;4.70;99.90;;;;;;5035772;28;20172;-77
2020/12/03 10:34:40;;;;;;;13.10;8.27;;;4.70;99.90;;;;;;5035187;28;20154;-77
2020/12/03 10:37:16;;;;;;;14.88;8.40;;;4.70;99.90;;;;;;5035774;28;20179;-78
2020/12/03 10:40:11;;;;;;;10.65;7.10;;;4.80;99.90;;;;;;5035552;28;20205;-78
2020/12/03 10:42:38;;;;;;;10.23;6.95;;;4.80;99.90;;;;;;5035709;28;20174;-78
2020/12/03 10:45:15;;;;;;;12.32;7.97;;;4.80;99.90;;;;;;5035191;28;20169;-78
2020/12/03 10:48:13;;;;;;;11.13;7.18;;;4.80;99.90;;;;;;5035348;28;20662;-78
2020/12/03 10:50:51;;;;;;;9.98;6.80;;;4.80;99.90;;;;;;5034861;28;20237;-78
2020/12/03 10:53:22;;;;;;;12.70;7.63;;;4.70;99.90;;;;;;5035300;28;20165;-78
2020/12/03 10:56:04;;;;;;;13.43;7.47;;;4.80;99.90;;;;;;5035029;28;20166;-78
2020/12/03 10:58:37;;;;;;;10.43;8.10;;;4.80;99.90;;;;;;5035179;28;20264;-79
2020/12/03 11:01:20;;;;;;;8.85;6.45;;;4.80;99.90;;;;;;5035295;28;20158;-77
2020/12/03 11:03:46;;;;;;;11.07;7.75;;;4.90;99.90;;;;;;5035135;28;20158;-79
2020/12/03 11:06:14;;;;;;;11.43;7.15;;;4.90;99.90;;;;;;5034946;28;20166;-79
2020/12/03 11:08:40;;;;;;;9.32;6.25;;;5.00;99.90;;;;;;5034937;28;20176;-77
2020/12/03 11:11:07;;;;;;;9.33;7.30;;;5.00;99.90;;;;;;5034945;28;20520;-77
2020/12/03 11:13:34;;;;;;;8.82;6.18;;;5.00;99.90;;;;;;5035065;28;20166;-78
2020/12/03 11:16:03;;;;;;;9.23;6.70;;;5.10;99.90;;;;;;5034643;28;20178;-78
2020/12/03 11:18:38;;;;;;;12.52;7.82;;;5.20;99.90;;;;;;5034628;28;20190;-77
2020/12/03 11:21:13;;;;;;;9.90;5.85;;;5.20;99.90;;;;;;5034856;28;20611;-78
2020/12/03 11:23:54;;;;;;;8.18;5.53;;;5.50;99.90;;;;;;5035088;28;20170;-78
2020/12/03 11:26:21;;;;;;;11.10;6.40;;;5.60;99.90;;;;;;5034717;28;20208;-79
2020/12/03 11:28:46;;;;;;;7.03;5.53;;;5.70;99.90;;;;;;5033442;28;20184;-77
2020/12/03 11:31:12;;;;;;;9.47;6.53;;;5.70;99.90;;;;;;5034557;28;20174;-78
2020/12/03 11:33:43;;;;;;;7.63;5.47;;;5.70;99.90;;;;;;5034472;28;20532;-78
2020/12/03 11:36:12;;;;;;;9.45;6.03;;;5.80;99.90;;;;;;5034274;28;20509;-78
2020/12/03 11:38:39;;;;;;;6.22;4.40;;;5.90;99.90;;;;;;5034214;28;20230;-78
2020/12/03 11:41:30;;;;;;;7.13;5.25;;;5.90;99.90;;;;;;5034363;28;20165;-78
2020/12/03 11:44:07;;;;;;;6.25;4.55;;;6.00;99.90;;;;;;5034343;28;20178;-78
2020/12/03 11:49:04;;;;;;;7.28;5.47;;;6.10;99.90;;;;;;5034273;28;20702;-77
2020/12/03 11:51:36;;;;;;;7.97;5.87;;;6.10;99.90;;;;;;5034234;28;20174;-78
2020/12/03 11:54:09;;;;;;;13.23;5.35;;;6.10;99.90;;;;;;5034083;28;20217;-78
2020/12/03 11:56:37;;;;;;;9.38;5.78;;;6.10;99.90;;;;;;5034100;28;20174;-78
2020/12/03 11:59:20;;;;;;;6.90;5.25;;;6.10;99.90;;;;;;5033819;28;20204;-77
2020/12/03 12:01:56;;;;;;;6.65;4.93;;;6.10;99.90;;;;;;5033871;28;20166;-77
2020/12/03 12:04:28;;;;;;;5.18;4.35;;;6.20;99.90;;;;;;5034023;28;20173;-78
2020/12/03 12:12:07;;;;;;;7.80;5.70;;;6.30;99.90;;;;;;5034094;28;20178;-77
2020/12/03 12:14:32;;;;;;;6.23;5.47;;;6.40;99.90;;;;;;5032889;28;20174;-77
2020/12/03 12:16:58;;;;;;;6.67;5.13;;;6.50;99.90;;;;;;5033810;28;20545;-77
2020/12/03 12:19:26;;;;;;;8.40;4.73;;;6.50;99.90;;;;;;5033736;28;20197;-78
2020/12/03 12:21:53;;;;;;;6.75;5.25;;;6.50;99.90;;;;;;5033383;28;20404;-78
2020/12/03 12:24:18;;;;;;;6.07;4.55;;;6.60;99.90;;;;;;5033632;28;20167;-77
2020/12/03 12:26:44;;;;;;;6.90;4.83;;;6.70;99.90;;;;;;5033424;28;20177;-76
2020/12/03 12:29:10;;;;;;;6.10;3.90;;;6.80;99.90;;;;;;5033597;28;20190;-77
2020/12/03 12:31:35;;;;;;;8.90;4.90;;;6.80;99.90;;;;;;5033341;28;20174;-77
2020/12/03 12:34:01;;;;;;;8.90;5.33;;;6.70;99.90;;;;;;5033523;28;20205;-77
2020/12/03 12:36:28;;;;;;;7.63;5.20;;;6.70;99.90;;;;;;5033528;28;20613;-77
2020/12/03 12:38:54;;;;;;;6.93;4.90;;;6.60;99.90;;;;;;5033373;28;20476;-76
2020/12/03 12:41:20;;;;;;;6.97;4.60;;;6.60;99.90;;;;;;5033664;28;20177;-78
2020/12/03 12:43:45;;;;;;;7.43;5.43;;;6.70;99.90;;;;;;5033610;28;20464;-77
2020/12/03 12:46:11;;;;;;;7.40;5.50;;;6.70;99.90;;;;;;5033275;28;20612;-77
2020/12/03 12:48:37;;;;;;;6.83;4.90;;;6.70;99.90;;;;;;5033148;28;20188;-77
2020/12/03 12:51:02;;;;;;;7.30;5.43;;;6.70;99.90;;;;;;5033430;28;20176;-76
2020/12/03 12:53:28;;;;;;;8.63;5.80;;;6.60;99.90;;;;;;5033197;28;20200;-76
2020/12/03 12:55:54;;;;;;;7.37;5.20;;;6.60;99.90;;;;;;5033094;28;20307;-77
2020/12/03 12:58:20;;;;;;;6.30;4.97;;;6.50;99.90;;;;;;5033227;28;20287;-77
2020/12/03 13:00:45;;;;;;;7.95;5.35;;;6.50;99.90;;;;;;5033142;28;20595;-76
2020/12/03 13:03:11;;;;;;;8.30;5.77;;;6.50;99.90;;;;;;5033331;28;20201;-76
2020/12/03 13:05:37;;;;;;;8.57;6.30;;;6.50;99.90;;;;;;5031559;28;20260;-77
2020/12/03 13:08:02;;;;;;;8.90;5.43;;;6.40;99.90;;;;;;5033029;28;20181;-77
2020/12/03 13:10:28;;;;;;;10.00;6.10;;;6.40;99.90;;;;;;5033148;28;20193;-76
2020/12/03 13:12:55;;;;;;;7.27;4.27;;;6.40;99.90;;;;;;5033312;28;20178;-77
2020/12/03 13:15:21;;;;;;;7.22;4.10;;;6.40;99.90;;;;;;5031589;28;20178;-77
2020/12/03 13:17:46;;;;;;;7.57;5.87;;;6.30;99.90;;;;;;5032974;28;20173;-76
2020/12/03 13:20:12;;;;;;;8.13;5.10;;;6.30;99.90;;;;;;5032815;28;20431;-76
2020/12/03 13:22:38;;;;;;;8.03;5.40;;;6.40;99.90;;;;;;5031780;28;20174;-77
2020/12/03 13:25:03;;;;;;;7.73;5.17;;;6.40;99.90;;;;;;5032503;28;20227;-77